sensor_id;sensor_type;location;lat;lon;timestamp;P1;durP1;ratioP1;P2;durP2;ratioP2
72273;SDS011;60208;48.692;8.948;2022-08-19T00:00:07;14.38;;;12.73;;
72273;SDS011;60208;48.692;8.948;2022-08-19T00:02:35;14.85;;;12.93;;
72273;SDS011;60208;48.692;8.948;2022-08-19T00:05:00;16.98;;;12.95;;
72273;SDS011;60208;48.692;8.948;2022-08-19T00:07:27;14.85;;;12.52;;
72273;SDS011;60208;48.692;8.948;2022-08-19T00:09:52;16.10;;;13.30;;
72273;SDS011;60208;48.692;8.948;2022-08-19T00:12:18;15.82;;;12.23;;
72273;SDS011;60208;48.692;8.948;2022-08-19T00:14:44;15.70;;;13.75;;
72273;SDS011;60208;48.692;8.948;2022-08-19T00:17:09;13.75;;;12.35;;
72273;SDS011;60208;48.692;8.948;2022-08-19T00:19:35;16.05;;;12.90;;
72273;SDS011;60208;48.692;8.948;2022-08-19T00:22:01;15.68;;;13.35;;
72273;SDS011;60208;48.692;8.948;2022-08-19T00:24:27;17.52;;;13.30;;
72273;SDS011;60208;48.692;8.948;2022-08-19T00:26:53;15.82;;;13.57;;
72273;SDS011;60208;48.692;8.948;2022-08-19T00:29:20;17.50;;;14.18;;
72273;SDS011;60208;48.692;8.948;2022-08-19T00:31:46;14.85;;;13.30;;
72273;SDS011;60208;48.692;8.948;2022-08-19T00:34:12;16.85;;;14.07;;
72273;SDS011;60208;48.692;8.948;2022-08-19T00:36:39;17.50;;;14.20;;
72273;SDS011;60208;48.692;8.948;2022-08-19T00:39:05;16.85;;;14.27;;
72273;SDS011;60208;48.692;8.948;2022-08-19T00:41:30;19.13;;;14.65;;
72273;SDS011;60208;48.692;8.948;2022-08-19T00:44:06;18.52;;;14.55;;
72273;SDS011;60208;48.692;8.948;2022-08-19T00:46:37;17.13;;;14.00;;
72273;SDS011;60208;48.692;8.948;2022-08-19T00:49:15;18.30;;;15.05;;
72273;SDS011;60208;48.692;8.948;2022-08-19T00:51:43;19.35;;;15.57;;
72273;SDS011;60208;48.692;8.948;2022-08-19T00:54:12;18.60;;;15.20;;
72273;SDS011;60208;48.692;8.948;2022-08-19T00:56:38;17.75;;;14.93;;
72273;SDS011;60208;48.692;8.948;2022-08-19T00:59:04;19.75;;;15.57;;
72273;SDS011;60208;48.692;8.948;2022-08-19T01:01:33;18.27;;;15.65;;
72273;SDS011;60208;48.692;8.948;2022-08-19T01:04:03;18.88;;;15.15;;
72273;SDS011;60208;48.692;8.948;2022-08-19T01:06:28;19.98;;;15.32;;
72273;SDS011;60208;48.692;8.948;2022-08-19T01:08:57;16.13;;;13.95;;
72273;SDS011;60208;48.692;8.948;2022-08-19T01:11:23;21.27;;;15.00;;
72273;SDS011;60208;48.692;8.948;2022-08-19T01:13:48;17.10;;;15.05;;
72273;SDS011;60208;48.692;8.948;2022-08-19T01:16:16;18.38;;;15.40;;
72273;SDS011;60208;48.692;8.948;2022-08-19T01:18:42;19.08;;;15.18;;
72273;SDS011;60208;48.692;8.948;2022-08-19T01:21:10;17.02;;;14.45;;
72273;SDS011;60208;48.692;8.948;2022-08-19T01:23:41;19.52;;;15.50;;
72273;SDS011;60208;48.692;8.948;2022-08-19T01:26:12;16.27;;;14.55;;
72273;SDS011;60208;48.692;8.948;2022-08-19T01:28:39;16.92;;;13.75;;
72273;SDS011;60208;48.692;8.948;2022-08-19T01:31:06;18.70;;;14.77;;
72273;SDS011;60208;48.692;8.948;2022-08-19T01:33:37;19.52;;;15.68;;
72273;SDS011;60208;48.692;8.948;2022-08-19T01:36:07;17.92;;;14.57;;
72273;SDS011;60208;48.692;8.948;2022-08-19T01:38:37;17.70;;;14.93;;
72273;SDS011;60208;48.692;8.948;2022-08-19T01:41:03;17.08;;;14.50;;
72273;SDS011;60208;48.692;8.948;2022-08-19T01:43:28;17.75;;;15.13;;
72273;SDS011;60208;48.692;8.948;2022-08-19T01:45:54;17.00;;;14.90;;
72273;SDS011;60208;48.692;8.948;2022-08-19T01:48:19;18.30;;;15.50;;
72273;SDS011;60208;48.692;8.948;2022-08-19T01:50:45;19.20;;;15.38;;
72273;SDS011;60208;48.692;8.948;2022-08-19T01:53:11;19.30;;;15.98;;
72273;SDS011;60208;48.692;8.948;2022-08-19T01:55:37;18.38;;;14.82;;
72273;SDS011;60208;48.692;8.948;2022-08-19T01:58:04;19.17;;;15.98;;
72273;SDS011;60208;48.692;8.948;2022-08-19T02:00:31;20.25;;;16.05;;
72273;SDS011;60208;48.692;8.948;2022-08-19T02:02:57;21.05;;;17.35;;
72273;SDS011;60208;48.692;8.948;2022-08-19T02:05:23;17.65;;;15.35;;
72273;SDS011;60208;48.692;8.948;2022-08-19T02:07:48;18.55;;;16.40;;
72273;SDS011;60208;48.692;8.948;2022-08-19T02:10:16;21.60;;;16.65;;
72273;SDS011;60208;48.692;8.948;2022-08-19T02:12:44;18.83;;;14.80;;
72273;SDS011;60208;48.692;8.948;2022-08-19T02:15:10;19.30;;;15.85;;
72273;SDS011;60208;48.692;8.948;2022-08-19T02:17:36;19.63;;;15.95;;
72273;SDS011;60208;48.692;8.948;2022-08-19T02:20:02;18.95;;;15.88;;
72273;SDS011;60208;48.692;8.948;2022-08-19T02:22:28;18.77;;;16.05;;
72273;SDS011;60208;48.692;8.948;2022-08-19T02:24:53;18.25;;;15.35;;
72273;SDS011;60208;48.692;8.948;2022-08-19T02:27:20;19.42;;;16.92;;
72273;SDS011;60208;48.692;8.948;2022-08-19T02:29:47;18.35;;;16.25;;
72273;SDS011;60208;48.692;8.948;2022-08-19T02:32:14;17.95;;;15.13;;
72273;SDS011;60208;48.692;8.948;2022-08-19T02:34:39;19.98;;;17.23;;
72273;SDS011;60208;48.692;8.948;2022-08-19T02:37:05;18.63;;;15.90;;
72273;SDS011;60208;48.692;8.948;2022-08-19T02:39:30;21.38;;;17.77;;
72273;SDS011;60208;48.692;8.948;2022-08-19T02:41:56;19.60;;;15.93;;
72273;SDS011;60208;48.692;8.948;2022-08-19T02:44:22;21.50;;;16.92;;
72273;SDS011;60208;48.692;8.948;2022-08-19T02:46:47;19.77;;;16.38;;
72273;SDS011;60208;48.692;8.948;2022-08-19T02:49:14;19.88;;;16.25;;
72273;SDS011;60208;48.692;8.948;2022-08-19T02:51:41;21.23;;;17.63;;
72273;SDS011;60208;48.692;8.948;2022-08-19T02:54:08;19.52;;;16.85;;
72273;SDS011;60208;48.692;8.948;2022-08-19T02:56:35;21.65;;;18.17;;
72273;SDS011;60208;48.692;8.948;2022-08-19T02:59:01;19.83;;;15.98;;
72273;SDS011;60208;48.692;8.948;2022-08-19T03:01:31;19.77;;;17.08;;
72273;SDS011;60208;48.692;8.948;2022-08-19T03:04:01;21.42;;;17.38;;
72273;SDS011;60208;48.692;8.948;2022-08-19T03:06:28;21.48;;;18.35;;
72273;SDS011;60208;48.692;8.948;2022-08-19T03:08:54;22.48;;;18.70;;
72273;SDS011;60208;48.692;8.948;2022-08-19T03:11:24;24.33;;;18.40;;
72273;SDS011;60208;48.692;8.948;2022-08-19T03:13:52;20.85;;;17.67;;
72273;SDS011;60208;48.692;8.948;2022-08-19T03:16:18;27.45;;;19.50;;
72273;SDS011;60208;48.692;8.948;2022-08-19T03:18:44;22.13;;;18.67;;
72273;SDS011;60208;48.692;8.948;2022-08-19T03:21:10;22.17;;;18.30;;
72273;SDS011;60208;48.692;8.948;2022-08-19T03:23:41;23.30;;;19.58;;
72273;SDS011;60208;48.692;8.948;2022-08-19T03:26:06;26.02;;;18.42;;
72273;SDS011;60208;48.692;8.948;2022-08-19T03:28:32;22.48;;;19.33;;
72273;SDS011;60208;48.692;8.948;2022-08-19T03:30:59;22.52;;;17.85;;
72273;SDS011;60208;48.692;8.948;2022-08-19T03:33:27;24.23;;;19.05;;
72273;SDS011;60208;48.692;8.948;2022-08-19T03:36:00;23.48;;;19.13;;
72273;SDS011;60208;48.692;8.948;2022-08-19T03:38:30;22.70;;;20.23;;
72273;SDS011;60208;48.692;8.948;2022-08-19T03:40:57;24.08;;;19.80;;
72273;SDS011;60208;48.692;8.948;2022-08-19T03:43:22;23.52;;;19.55;;
72273;SDS011;60208;48.692;8.948;2022-08-19T03:45:47;26.58;;;21.10;;
72273;SDS011;60208;48.692;8.948;2022-08-19T03:48:14;23.20;;;18.77;;
72273;SDS011;60208;48.692;8.948;2022-08-19T03:50:41;23.23;;;19.95;;
72273;SDS011;60208;48.692;8.948;2022-08-19T03:53:07;26.80;;;19.65;;
72273;SDS011;60208;48.692;8.948;2022-08-19T03:55:33;26.08;;;21.02;;
72273;SDS011;60208;48.692;8.948;2022-08-19T03:58:03;22.98;;;18.80;;
72273;SDS011;60208;48.692;8.948;2022-08-19T04:00:28;24.38;;;20.77;;
72273;SDS011;60208;48.692;8.948;2022-08-19T04:02:54;24.55;;;20.70;;
72273;SDS011;60208;48.692;8.948;2022-08-19T04:05:19;26.63;;;22.27;;
72273;SDS011;60208;48.692;8.948;2022-08-19T04:07:45;28.98;;;22.40;;
72273;SDS011;60208;48.692;8.948;2022-08-19T04:10:11;27.67;;;21.27;;
72273;SDS011;60208;48.692;8.948;2022-08-19T04:12:36;26.67;;;21.05;;
72273;SDS011;60208;48.692;8.948;2022-08-19T04:15:02;26.20;;;21.17;;
72273;SDS011;60208;48.692;8.948;2022-08-19T04:17:28;28.00;;;22.60;;
72273;SDS011;60208;48.692;8.948;2022-08-19T04:19:54;25.08;;;21.25;;
72273;SDS011;60208;48.692;8.948;2022-08-19T04:22:19;26.92;;;21.40;;
72273;SDS011;60208;48.692;8.948;2022-08-19T04:24:44;28.75;;;23.13;;
72273;SDS011;60208;48.692;8.948;2022-08-19T04:27:10;26.45;;;23.25;;
72273;SDS011;60208;48.692;8.948;2022-08-19T04:29:35;27.38;;;23.38;;
72273;SDS011;60208;48.692;8.948;2022-08-19T04:32:04;26.02;;;21.15;;
72273;SDS011;60208;48.692;8.948;2022-08-19T04:34:30;28.48;;;22.20;;
72273;SDS011;60208;48.692;8.948;2022-08-19T04:36:57;27.08;;;22.60;;
72273;SDS011;60208;48.692;8.948;2022-08-19T04:39:24;28.30;;;23.08;;
72273;SDS011;60208;48.692;8.948;2022-08-19T04:42:13;26.92;;;22.40;;
72273;SDS011;60208;48.692;8.948;2022-08-19T04:44:57;27.20;;;22.00;;
72273;SDS011;60208;48.692;8.948;2022-08-19T04:47:23;28.75;;;23.25;;
72273;SDS011;60208;48.692;8.948;2022-08-19T04:49:48;28.05;;;22.33;;
72273;SDS011;60208;48.692;8.948;2022-08-19T04:52:14;27.45;;;23.38;;
72273;SDS011;60208;48.692;8.948;2022-08-19T04:54:39;27.13;;;22.85;;
72273;SDS011;60208;48.692;8.948;2022-08-19T04:57:05;24.85;;;20.58;;
72273;SDS011;60208;48.692;8.948;2022-08-19T04:59:35;25.88;;;21.65;;
72273;SDS011;60208;48.692;8.948;2022-08-19T05:02:01;26.80;;;22.60;;
72273;SDS011;60208;48.692;8.948;2022-08-19T05:04:27;27.92;;;23.17;;
72273;SDS011;60208;48.692;8.948;2022-08-19T05:06:56;27.95;;;22.55;;
72273;SDS011;60208;48.692;8.948;2022-08-19T05:09:22;26.63;;;21.38;;
72273;SDS011;60208;48.692;8.948;2022-08-19T05:11:47;24.08;;;20.52;;
72273;SDS011;60208;48.692;8.948;2022-08-19T05:14:15;27.80;;;22.63;;
72273;SDS011;60208;48.692;8.948;2022-08-19T05:16:41;27.38;;;21.92;;
72273;SDS011;60208;48.692;8.948;2022-08-19T05:19:06;26.38;;;22.40;;
72273;SDS011;60208;48.692;8.948;2022-08-19T05:21:50;25.58;;;21.00;;
72273;SDS011;60208;48.692;8.948;2022-08-19T05:24:34;28.63;;;22.60;;
72273;SDS011;60208;48.692;8.948;2022-08-19T05:26:59;29.80;;;23.20;;
72273;SDS011;60208;48.692;8.948;2022-08-19T05:29:27;23.05;;;20.45;;
72273;SDS011;60208;48.692;8.948;2022-08-19T05:31:54;26.63;;;22.00;;
72273;SDS011;60208;48.692;8.948;2022-08-19T05:34:20;26.85;;;22.58;;
72273;SDS011;60208;48.692;8.948;2022-08-19T05:36:47;25.75;;;21.65;;
72273;SDS011;60208;48.692;8.948;2022-08-19T05:39:15;29.08;;;22.52;;
72273;SDS011;60208;48.692;8.948;2022-08-19T05:41:43;26.38;;;21.00;;
72273;SDS011;60208;48.692;8.948;2022-08-19T05:44:13;30.90;;;22.83;;
72273;SDS011;60208;48.692;8.948;2022-08-19T05:46:39;25.17;;;20.75;;
72273;SDS011;60208;48.692;8.948;2022-08-19T05:49:05;22.45;;;19.83;;
72273;SDS011;60208;48.692;8.948;2022-08-19T05:51:31;26.15;;;21.20;;
72273;SDS011;60208;48.692;8.948;2022-08-19T05:53:59;29.00;;;23.27;;
72273;SDS011;60208;48.692;8.948;2022-08-19T05:56:24;28.85;;;22.80;;
72273;SDS011;60208;48.692;8.948;2022-08-19T05:58:50;25.67;;;21.33;;
72273;SDS011;60208;48.692;8.948;2022-08-19T06:01:16;24.42;;;20.75;;
72273;SDS011;60208;48.692;8.948;2022-08-19T06:03:42;26.85;;;22.15;;
72273;SDS011;60208;48.692;8.948;2022-08-19T06:06:09;24.13;;;20.27;;
72273;SDS011;60208;48.692;8.948;2022-08-19T06:08:37;20.05;;;17.83;;
72273;SDS011;60208;48.692;8.948;2022-08-19T06:13:49;26.15;;;22.42;;
72273;SDS011;60208;48.692;8.948;2022-08-19T06:16:20;27.90;;;21.95;;
72273;SDS011;60208;48.692;8.948;2022-08-19T06:18:54;25.60;;;20.75;;
72273;SDS011;60208;48.692;8.948;2022-08-19T06:21:22;26.88;;;22.23;;
72273;SDS011;60208;48.692;8.948;2022-08-19T06:23:49;25.55;;;21.05;;
72273;SDS011;60208;48.692;8.948;2022-08-19T06:26:16;26.83;;;22.55;;
72273;SDS011;60208;48.692;8.948;2022-08-19T06:28:42;28.08;;;22.25;;
72273;SDS011;60208;48.692;8.948;2022-08-19T06:31:11;25.80;;;21.55;;
72273;SDS011;60208;48.692;8.948;2022-08-19T06:33:45;28.15;;;21.92;;
72273;SDS011;60208;48.692;8.948;2022-08-19T06:36:21;26.88;;;21.48;;
72273;SDS011;60208;48.692;8.948;2022-08-19T06:38:49;24.33;;;19.98;;
72273;SDS011;60208;48.692;8.948;2022-08-19T06:41:14;25.85;;;21.27;;
72273;SDS011;60208;48.692;8.948;2022-08-19T06:43:40;25.08;;;20.80;;
72273;SDS011;60208;48.692;8.948;2022-08-19T06:46:11;23.38;;;20.30;;
72273;SDS011;60208;48.692;8.948;2022-08-19T06:48:38;25.08;;;20.23;;
72273;SDS011;60208;48.692;8.948;2022-08-19T06:51:03;25.02;;;20.65;;
72273;SDS011;60208;48.692;8.948;2022-08-19T06:53:30;23.15;;;19.52;;
72273;SDS011;60208;48.692;8.948;2022-08-19T06:55:56;22.80;;;20.35;;
72273;SDS011;60208;48.692;8.948;2022-08-19T06:58:25;23.67;;;19.50;;
72273;SDS011;60208;48.692;8.948;2022-08-19T07:00:51;22.83;;;19.55;;
72273;SDS011;60208;48.692;8.948;2022-08-19T07:03:16;23.40;;;20.63;;
72273;SDS011;60208;48.692;8.948;2022-08-19T07:05:42;19.83;;;17.63;;
72273;SDS011;60208;48.692;8.948;2022-08-19T07:08:08;21.55;;;19.05;;
72273;SDS011;60208;48.692;8.948;2022-08-19T07:10:34;23.60;;;19.10;;
72273;SDS011;60208;48.692;8.948;2022-08-19T07:13:01;23.27;;;18.60;;
72273;SDS011;60208;48.692;8.948;2022-08-19T07:15:28;22.17;;;17.55;;
72273;SDS011;60208;48.692;8.948;2022-08-19T07:17:53;20.95;;;18.30;;
72273;SDS011;60208;48.692;8.948;2022-08-19T07:20:18;22.45;;;17.75;;
72273;SDS011;60208;48.692;8.948;2022-08-19T07:22:44;21.00;;;18.50;;
72273;SDS011;60208;48.692;8.948;2022-08-19T07:25:10;20.05;;;17.80;;
72273;SDS011;60208;48.692;8.948;2022-08-19T07:27:38;26.70;;;17.85;;
72273;SDS011;60208;48.692;8.948;2022-08-19T07:30:03;28.00;;;18.65;;
72273;SDS011;60208;48.692;8.948;2022-08-19T07:32:30;29.33;;;18.98;;
72273;SDS011;60208;48.692;8.948;2022-08-19T07:34:55;22.90;;;17.52;;
72273;SDS011;60208;48.692;8.948;2022-08-19T07:37:21;22.35;;;17.52;;
72273;SDS011;60208;48.692;8.948;2022-08-19T07:39:46;23.58;;;19.13;;
72273;SDS011;60208;48.692;8.948;2022-08-19T07:42:11;24.00;;;17.95;;
72273;SDS011;60208;48.692;8.948;2022-08-19T07:44:38;25.33;;;16.88;;
72273;SDS011;60208;48.692;8.948;2022-08-19T07:47:04;19.90;;;16.60;;
72273;SDS011;60208;48.692;8.948;2022-08-19T07:49:29;20.52;;;16.40;;
72273;SDS011;60208;48.692;8.948;2022-08-19T07:51:56;21.13;;;17.70;;
72273;SDS011;60208;48.692;8.948;2022-08-19T07:54:28;23.30;;;18.20;;
72273;SDS011;60208;48.692;8.948;2022-08-19T07:56:55;22.77;;;17.30;;
72273;SDS011;60208;48.692;8.948;2022-08-19T07:59:21;24.08;;;16.67;;
72273;SDS011;60208;48.692;8.948;2022-08-19T08:01:47;27.90;;;17.65;;
72273;SDS011;60208;48.692;8.948;2022-08-19T08:04:14;27.02;;;17.25;;
72273;SDS011;60208;48.692;8.948;2022-08-19T08:06:57;21.92;;;16.48;;
72273;SDS011;60208;48.692;8.948;2022-08-19T08:09:42;24.85;;;17.40;;
72273;SDS011;60208;48.692;8.948;2022-08-19T08:12:12;31.15;;;18.40;;
72273;SDS011;60208;48.692;8.948;2022-08-19T08:14:45;27.13;;;16.83;;
72273;SDS011;60208;48.692;8.948;2022-08-19T08:17:12;32.08;;;16.60;;
72273;SDS011;60208;48.692;8.948;2022-08-19T08:19:39;31.23;;;16.67;;
72273;SDS011;60208;48.692;8.948;2022-08-19T08:22:08;24.20;;;16.25;;
72273;SDS011;60208;48.692;8.948;2022-08-19T08:24:54;20.17;;;16.10;;
72273;SDS011;60208;48.692;8.948;2022-08-19T08:27:20;24.73;;;15.95;;
72273;SDS011;60208;48.692;8.948;2022-08-19T08:29:45;25.30;;;16.23;;
72273;SDS011;60208;48.692;8.948;2022-08-19T08:32:11;22.25;;;16.83;;
72273;SDS011;60208;48.692;8.948;2022-08-19T08:34:36;26.52;;;16.40;;
72273;SDS011;60208;48.692;8.948;2022-08-19T08:37:02;23.77;;;16.63;;
72273;SDS011;60208;48.692;8.948;2022-08-19T08:39:28;25.55;;;16.25;;
72273;SDS011;60208;48.692;8.948;2022-08-19T08:44:49;18.75;;;15.45;;
72273;SDS011;60208;48.692;8.948;2022-08-19T08:47:19;16.40;;;14.70;;
72273;SDS011;60208;48.692;8.948;2022-08-19T08:49:54;18.90;;;14.25;;
72273;SDS011;60208;48.692;8.948;2022-08-19T08:54:54;21.90;;;15.02;;
72273;SDS011;60208;48.692;8.948;2022-08-19T08:57:24;26.80;;;15.73;;
72273;SDS011;60208;48.692;8.948;2022-08-19T08:59:52;25.35;;;15.80;;
72273;SDS011;60208;48.692;8.948;2022-08-19T09:02:18;22.65;;;16.13;;
72273;SDS011;60208;48.692;8.948;2022-08-19T09:04:44;23.17;;;14.82;;
72273;SDS011;60208;48.692;8.948;2022-08-19T09:07:22;26.55;;;14.57;;
72273;SDS011;60208;48.692;8.948;2022-08-19T09:09:51;22.50;;;14.90;;
72273;SDS011;60208;48.692;8.948;2022-08-19T09:14:50;19.55;;;15.15;;
72273;SDS011;60208;48.692;8.948;2022-08-19T09:17:23;19.63;;;14.88;;
72273;SDS011;60208;48.692;8.948;2022-08-19T09:19:58;20.23;;;16.17;;
72273;SDS011;60208;48.692;8.948;2022-08-19T09:22:24;17.02;;;14.25;;
72273;SDS011;60208;48.692;8.948;2022-08-19T09:24:51;18.15;;;15.50;;
72273;SDS011;60208;48.692;8.948;2022-08-19T09:27:18;15.32;;;13.70;;
72273;SDS011;60208;48.692;8.948;2022-08-19T09:29:45;16.98;;;14.93;;
72273;SDS011;60208;48.692;8.948;2022-08-19T09:32:14;17.80;;;14.60;;
72273;SDS011;60208;48.692;8.948;2022-08-19T09:34:39;20.17;;;15.05;;
72273;SDS011;60208;48.692;8.948;2022-08-19T09:37:05;16.85;;;14.35;;
72273;SDS011;60208;48.692;8.948;2022-08-19T09:39:31;18.63;;;15.95;;
72273;SDS011;60208;48.692;8.948;2022-08-19T09:41:56;21.23;;;14.43;;
72273;SDS011;60208;48.692;8.948;2022-08-19T09:44:22;18.75;;;14.50;;
72273;SDS011;60208;48.692;8.948;2022-08-19T09:46:48;27.02;;;15.98;;
72273;SDS011;60208;48.692;8.948;2022-08-19T09:49:14;24.05;;;15.35;;
72273;SDS011;60208;48.692;8.948;2022-08-19T09:51:42;19.20;;;14.00;;
72273;SDS011;60208;48.692;8.948;2022-08-19T09:54:07;19.65;;;15.82;;
72273;SDS011;60208;48.692;8.948;2022-08-19T09:56:32;18.08;;;15.07;;
72273;SDS011;60208;48.692;8.948;2022-08-19T09:58:58;18.27;;;14.48;;
72273;SDS011;60208;48.692;8.948;2022-08-19T10:01:25;16.70;;;13.82;;
72273;SDS011;60208;48.692;8.948;2022-08-19T10:03:54;17.55;;;13.32;;
72273;SDS011;60208;48.692;8.948;2022-08-19T10:06:21;30.48;;;14.98;;
72273;SDS011;60208;48.692;8.948;2022-08-19T10:08:54;20.10;;;13.00;;
72273;SDS011;60208;48.692;8.948;2022-08-19T10:11:19;18.73;;;13.45;;
72273;SDS011;60208;48.692;8.948;2022-08-19T10:13:46;24.50;;;13.32;;
72273;SDS011;60208;48.692;8.948;2022-08-19T10:16:17;26.58;;;14.85;;
72273;SDS011;60208;48.692;8.948;2022-08-19T10:18:44;20.02;;;12.23;;
72273;SDS011;60208;48.692;8.948;2022-08-19T10:23:36;14.75;;;11.63;;
72273;SDS011;60208;48.692;8.948;2022-08-19T10:26:04;14.02;;;12.63;;
72273;SDS011;60208;48.692;8.948;2022-08-19T10:28:31;13.18;;;11.52;;
72273;SDS011;60208;48.692;8.948;2022-08-19T10:31:05;14.25;;;12.77;;
72273;SDS011;60208;48.692;8.948;2022-08-19T10:33:32;14.15;;;12.02;;
72273;SDS011;60208;48.692;8.948;2022-08-19T10:35:58;12.88;;;11.35;;
72273;SDS011;60208;48.692;8.948;2022-08-19T10:38:29;16.15;;;11.30;;
72273;SDS011;60208;48.692;8.948;2022-08-19T10:40:54;11.43;;;9.40;;
72273;SDS011;60208;48.692;8.948;2022-08-19T10:43:20;15.30;;;10.23;;
72273;SDS011;60208;48.692;8.948;2022-08-19T10:45:52;11.30;;;9.60;;
72273;SDS011;60208;48.692;8.948;2022-08-19T10:48:21;13.93;;;9.65;;
72273;SDS011;60208;48.692;8.948;2022-08-19T10:50:46;11.27;;;8.98;;
72273;SDS011;60208;48.692;8.948;2022-08-19T10:53:30;11.00;;;9.27;;
72273;SDS011;60208;48.692;8.948;2022-08-19T10:55:55;12.75;;;9.98;;
72273;SDS011;60208;48.692;8.948;2022-08-19T10:58:39;21.42;;;10.32;;
72273;SDS011;60208;48.692;8.948;2022-08-19T11:01:06;19.23;;;10.70;;
72273;SDS011;60208;48.692;8.948;2022-08-19T11:03:33;19.10;;;11.95;;
72273;SDS011;60208;48.692;8.948;2022-08-19T11:06:02;14.90;;;10.13;;
72273;SDS011;60208;48.692;8.948;2022-08-19T11:08:29;18.05;;;10.90;;
72273;SDS011;60208;48.692;8.948;2022-08-19T11:10:57;14.98;;;10.10;;
72273;SDS011;60208;48.692;8.948;2022-08-19T11:13:33;16.27;;;9.95;;
72273;SDS011;60208;48.692;8.948;2022-08-19T11:16:03;19.50;;;9.95;;
72273;SDS011;60208;48.692;8.948;2022-08-19T11:18:35;14.80;;;9.45;;
72273;SDS011;60208;48.692;8.948;2022-08-19T11:21:05;10.30;;;9.00;;
72273;SDS011;60208;48.692;8.948;2022-08-19T11:23:31;10.82;;;9.73;;
72273;SDS011;60208;48.692;8.948;2022-08-19T11:25:57;10.85;;;9.60;;
72273;SDS011;60208;48.692;8.948;2022-08-19T11:28:24;10.23;;;8.98;;
72273;SDS011;60208;48.692;8.948;2022-08-19T11:30:49;11.43;;;8.50;;
72273;SDS011;60208;48.692;8.948;2022-08-19T11:33:15;7.68;;;6.90;;
72273;SDS011;60208;48.692;8.948;2022-08-19T11:35:40;9.30;;;8.32;;
72273;SDS011;60208;48.692;8.948;2022-08-19T11:38:06;9.40;;;8.50;;
72273;SDS011;60208;48.692;8.948;2022-08-19T11:40:31;10.20;;;9.20;;
72273;SDS011;60208;48.692;8.948;2022-08-19T11:42:58;10.95;;;8.90;;
72273;SDS011;60208;48.692;8.948;2022-08-19T11:45:24;8.60;;;7.75;;
72273;SDS011;60208;48.692;8.948;2022-08-19T11:47:50;14.60;;;8.40;;
72273;SDS011;60208;48.692;8.948;2022-08-19T11:50:16;11.43;;;7.70;;
72273;SDS011;60208;48.692;8.948;2022-08-19T11:52:42;11.60;;;8.57;;
72273;SDS011;60208;48.692;8.948;2022-08-19T11:55:09;10.88;;;7.65;;
72273;SDS011;60208;48.692;8.948;2022-08-19T11:57:35;9.00;;;7.22;;
72273;SDS011;60208;48.692;8.948;2022-08-19T12:00:01;9.40;;;7.93;;
72273;SDS011;60208;48.692;8.948;2022-08-19T12:02:29;8.77;;;6.97;;
72273;SDS011;60208;48.692;8.948;2022-08-19T12:04:54;8.02;;;7.05;;
72273;SDS011;60208;48.692;8.948;2022-08-19T12:07:20;8.57;;;7.60;;
72273;SDS011;60208;48.692;8.948;2022-08-19T12:09:45;7.60;;;6.78;;
72273;SDS011;60208;48.692;8.948;2022-08-19T12:12:11;13.52;;;7.00;;
72273;SDS011;60208;48.692;8.948;2022-08-19T12:14:36;13.23;;;7.40;;
72273;SDS011;60208;48.692;8.948;2022-08-19T12:17:02;8.70;;;6.95;;
72273;SDS011;60208;48.692;8.948;2022-08-19T12:19:29;9.50;;;7.03;;
72273;SDS011;60208;48.692;8.948;2022-08-19T12:21:58;7.38;;;6.40;;
72273;SDS011;60208;48.692;8.948;2022-08-19T12:24:26;6.22;;;5.20;;
72273;SDS011;60208;48.692;8.948;2022-08-19T12:26:51;9.35;;;5.63;;
72273;SDS011;60208;48.692;8.948;2022-08-19T12:29:18;7.65;;;5.68;;
72273;SDS011;60208;48.692;8.948;2022-08-19T12:31:43;7.40;;;4.70;;
72273;SDS011;60208;48.692;8.948;2022-08-19T12:34:09;5.95;;;5.35;;
72273;SDS011;60208;48.692;8.948;2022-08-19T12:36:37;6.22;;;5.25;;
72273;SDS011;60208;48.692;8.948;2022-08-19T12:39:02;6.88;;;5.35;;
72273;SDS011;60208;48.692;8.948;2022-08-19T12:41:29;5.82;;;5.05;;
72273;SDS011;60208;48.692;8.948;2022-08-19T12:43:54;8.48;;;5.45;;
72273;SDS011;60208;48.692;8.948;2022-08-19T12:46:20;5.55;;;4.88;;
72273;SDS011;60208;48.692;8.948;2022-08-19T12:48:46;10.45;;;5.60;;
72273;SDS011;60208;48.692;8.948;2022-08-19T12:51:13;12.68;;;5.50;;
72273;SDS011;60208;48.692;8.948;2022-08-19T12:53:41;9.82;;;5.13;;
72273;SDS011;60208;48.692;8.948;2022-08-19T12:56:07;9.10;;;4.93;;
72273;SDS011;60208;48.692;8.948;2022-08-19T12:58:33;5.07;;;4.65;;
72273;SDS011;60208;48.692;8.948;2022-08-19T13:00:59;5.55;;;4.80;;
72273;SDS011;60208;48.692;8.948;2022-08-19T13:03:30;5.20;;;4.70;;
72273;SDS011;60208;48.692;8.948;2022-08-19T13:05:56;5.68;;;4.70;;
72273;SDS011;60208;48.692;8.948;2022-08-19T13:08:21;4.82;;;4.15;;
72273;SDS011;60208;48.692;8.948;2022-08-19T13:10:47;8.07;;;4.93;;
72273;SDS011;60208;48.692;8.948;2022-08-19T13:13:12;8.18;;;4.80;;
72273;SDS011;60208;48.692;8.948;2022-08-19T13:15:39;5.18;;;4.65;;
72273;SDS011;60208;48.692;8.948;2022-08-19T13:18:06;5.13;;;4.63;;
72273;SDS011;60208;48.692;8.948;2022-08-19T13:20:34;4.68;;;4.18;;
72273;SDS011;60208;48.692;8.948;2022-08-19T13:23:00;7.47;;;4.45;;
72273;SDS011;60208;48.692;8.948;2022-08-19T13:25:25;7.25;;;4.55;;
72273;SDS011;60208;48.692;8.948;2022-08-19T13:27:51;6.28;;;3.90;;
72273;SDS011;60208;48.692;8.948;2022-08-19T13:30:17;6.85;;;5.30;;
72273;SDS011;60208;48.692;8.948;2022-08-19T13:33:03;5.72;;;5.22;;
72273;SDS011;60208;48.692;8.948;2022-08-19T13:35:45;8.25;;;5.82;;
72273;SDS011;60208;48.692;8.948;2022-08-19T13:38:19;5.90;;;5.32;;
72273;SDS011;60208;48.692;8.948;2022-08-19T13:40:45;6.15;;;5.55;;
72273;SDS011;60208;48.692;8.948;2022-08-19T13:43:12;8.30;;;6.40;;
72273;SDS011;60208;48.692;8.948;2022-08-19T13:45:38;7.13;;;6.40;;
72273;SDS011;60208;48.692;8.948;2022-08-19T13:48:05;6.95;;;6.32;;
72273;SDS011;60208;48.692;8.948;2022-08-19T13:50:32;8.88;;;5.95;;
72273;SDS011;60208;48.692;8.948;2022-08-19T13:52:58;6.05;;;5.55;;
72273;SDS011;60208;48.692;8.948;2022-08-19T13:55:25;6.53;;;5.93;;
72273;SDS011;60208;48.692;8.948;2022-08-19T13:57:52;8.20;;;6.25;;
72273;SDS011;60208;48.692;8.948;2022-08-19T14:00:18;7.43;;;5.93;;
72273;SDS011;60208;48.692;8.948;2022-08-19T14:02:44;7.28;;;6.68;;
72273;SDS011;60208;48.692;8.948;2022-08-19T14:05:11;6.43;;;5.88;;
72273;SDS011;60208;48.692;8.948;2022-08-19T14:07:40;6.50;;;5.90;;
72273;SDS011;60208;48.692;8.948;2022-08-19T14:10:07;6.47;;;5.97;;
72273;SDS011;60208;48.692;8.948;2022-08-19T14:12:33;7.93;;;5.88;;
72273;SDS011;60208;48.692;8.948;2022-08-19T14:14:59;7.00;;;6.40;;
72273;SDS011;60208;48.692;8.948;2022-08-19T14:17:25;9.95;;;6.45;;
72273;SDS011;60208;48.692;8.948;2022-08-19T14:19:57;6.90;;;6.30;;
72273;SDS011;60208;48.692;8.948;2022-08-19T14:22:24;6.60;;;6.00;;
72273;SDS011;60208;48.692;8.948;2022-08-19T14:24:49;6.43;;;5.93;;
72273;SDS011;60208;48.692;8.948;2022-08-19T14:27:15;19.92;;;6.97;;
72273;SDS011;60208;48.692;8.948;2022-08-19T14:29:40;7.10;;;6.40;;
72273;SDS011;60208;48.692;8.948;2022-08-19T14:32:06;7.43;;;6.15;;
72273;SDS011;60208;48.692;8.948;2022-08-19T14:34:31;6.18;;;5.57;;
72273;SDS011;60208;48.692;8.948;2022-08-19T14:36:58;6.90;;;6.22;;
72273;SDS011;60208;48.692;8.948;2022-08-19T14:39:24;6.30;;;5.68;;
72273;SDS011;60208;48.692;8.948;2022-08-19T14:41:49;7.55;;;6.72;;